Time;durP1;ratioP1;P1;durP2;ratioP2;P2;SDS_P1;SDS_P2;PMS_P1;PMS_P2;Temp;Humidity;BMP_temperature;BMP_pressure;BME280_temperature;BME280_humidity;BME280_pressure;Samples;Min_cycle;Max_cycle;Signal;HPM_P1;HPM_P2
2022/06/21 00:00:39;;;;;;;10.95;8.82;;;24.50;99.90;;;;;;5088150;28;20036;-50
2022/06/21 00:03:11;;;;;;;11.77;8.80;;;24.50;99.90;;;;;;5087686;28;20040;-52
2022/06/21 00:05:42;;;;;;;10.35;9.20;;;24.60;99.90;;;;;;5084008;28;20123;-49
2022/06/21 00:08:16;;;;;;;;;;;24.60;99.90;;;;;;5085719;28;20118;-50
2022/06/21 00:10:42;;;;;;;12.18;8.70;;;24.60;99.90;;;;;;5080085;28;19991;-49
2022/06/21 00:13:16;;;;;;;13.15;8.75;;;24.60;99.90;;;;;;5053025;28;20048;-51
2022/06/21 00:15:43;;;;;;;63.92;12.50;;;24.60;99.90;;;;;;5053366;28;20045;-51
2022/06/21 00:18:13;;;;;;;9.45;8.55;;;24.60;99.90;;;;;;5052883;28;20102;-48
2022/06/21 00:20:40;;;;;;;9.75;8.65;;;24.60;99.90;;;;;;5052903;28;20156;-49
2022/06/21 00:23:06;;;;;;;9.90;8.02;;;24.60;99.90;;;;;;5052738;28;20044;-50
2022/06/21 00:25:32;;;;;;;10.23;8.70;;;24.60;99.90;;;;;;4987586;28;20043;-48
2022/06/21 00:27:58;;;;;;;9.10;7.65;;;24.60;99.90;;;;;;5019691;28;20483;-51
2022/06/21 00:30:25;;;;;;;11.10;7.63;;;24.50;99.90;;;;;;5034886;28;20074;-52
2022/06/21 00:32:54;;;;;;;8.98;8.07;;;24.60;99.90;;;;;;5051198;28;20029;-49
2022/06/21 00:35:22;;;;;;;11.18;8.00;;;24.50;99.90;;;;;;5052825;28;20109;-49
2022/06/21 00:37:49;;;;;;;8.43;7.50;;;24.50;99.90;;;;;;5049899;28;20056;-48
2022/06/21 00:40:23;;;;;;;11.30;7.65;;;24.50;99.90;;;;;;5053332;28;20063;-49
2022/06/21 00:43:15;;;;;;;9.05;7.80;;;24.50;99.90;;;;;;5032553;28;20041;-49
2022/06/21 00:45:44;;;;;;;8.18;7.38;;;24.50;99.90;;;;;;5032500;28;20033;-51
2022/06/21 00:48:22;;;;;;;11.20;8.13;;;24.50;99.90;;;;;;5032074;28;20466;-49
2022/06/21 00:50:53;;;;;;;9.65;7.75;;;24.60;99.90;;;;;;5048688;28;20123;-48
2022/06/21 00:53:26;;;;;;;8.27;7.45;;;24.50;99.90;;;;;;4979844;28;20061;-50
2022/06/21 00:56:22;;;;;;;8.20;7.35;;;24.60;99.90;;;;;;5056750;28;20500;-50
2022/06/21 00:58:49;;;;;;;11.65;8.65;;;24.50;99.90;;;;;;5045707;28;20462;-51
2022/06/21 01:01:29;;;;;;;10.07;8.13;;;24.60;99.90;;;;;;5042856;28;20033;-49
2022/06/21 01:04:16;;;;;;;10.00;7.55;;;24.60;99.90;;;;;;5032826;28;20049;-50
2022/06/21 01:06:47;;;;;;;10.48;8.75;;;24.50;99.90;;;;;;5041491;28;20559;-49
2022/06/21 01:09:19;;;;;;;13.27;8.68;;;24.50;99.90;;;;;;5036782;28;20040;-49
2022/06/21 01:11:53;;;;;;;9.32;8.43;;;24.60;99.90;;;;;;5041477;28;20037;-50
2022/06/21 01:14:22;;;;;;;11.30;9.13;;;24.50;99.90;;;;;;5061737;28;20041;-52
2022/06/21 01:16:49;;;;;;;10.90;8.60;;;24.50;99.90;;;;;;5067604;28;20141;-49
2022/06/21 01:19:40;;;;;;;10.75;8.73;;;24.40;99.90;;;;;;5055956;28;20041;-50
2022/06/21 01:22:17;;;;;;;9.75;8.73;;;24.40;99.90;;;;;;5053331;28;20116;-50
2022/06/21 01:24:59;;;;;;;11.73;8.23;;;24.40;99.90;;;;;;5028462;28;20134;-51
2022/06/21 01:27:25;;;;;;;9.65;8.38;;;24.40;99.90;;;;;;5065684;28;20388;-50
2022/06/21 01:29:52;;;;;;;9.77;8.15;;;24.40;99.90;;;;;;5057221;28;20029;-49
2022/06/21 01:32:18;;;;;;;9.43;7.90;;;24.40;99.90;;;;;;5063528;28;20028;-51
2022/06/21 01:34:44;;;;;;;9.38;7.47;;;24.30;99.90;;;;;;5063176;28;20031;-51
2022/06/21 01:37:13;;;;;;;10.40;8.63;;;24.30;99.90;;;;;;5058490;28;20044;-51
2022/06/21 01:39:49;;;;;;;9.90;8.25;;;24.30;99.90;;;;;;5064957;28;20484;-50
2022/06/21 01:42:25;;;;;;;8.82;7.35;;;24.30;99.90;;;;;;5061157;28;20031;-50
2022/06/21 01:44:55;;;;;;;10.98;8.05;;;24.20;99.90;;;;;;5065895;28;20078;-50
2022/06/21 01:47:31;;;;;;;8.57;7.68;;;24.20;99.90;;;;;;5065530;28;20035;-51
2022/06/21 01:50:03;;;;;;;8.35;7.43;;;24.20;99.90;;;;;;5062989;28;20029;-51
2022/06/21 01:52:33;;;;;;;10.98;7.75;;;24.20;99.90;;;;;;5059589;28;20024;-50
2022/06/21 01:55:21;;;;;;;10.70;7.80;;;24.20;99.90;;;;;;5059481;28;20346;-50
2022/06/21 01:57:49;;;;;;;10.35;8.32;;;24.20;99.90;;;;;;5053165;28;20056;-50
2022/06/21 02:00:15;;;;;;;9.32;7.03;;;24.20;99.90;;;;;;5065289;28;20098;-49
2022/06/21 02:02:49;;;;;;;9.30;7.50;;;24.10;99.90;;;;;;5060892;28;20456;-50
2022/06/21 02:05:22;;;;;;;11.52;7.47;;;24.10;99.90;;;;;;5049784;28;20463;-50
2022/06/21 02:07:56;;;;;;;9.30;8.02;;;24.10;99.90;;;;;;5010978;28;20484;-51
2022/06/21 02:10:35;;;;;;;7.95;6.88;;;24.10;99.90;;;;;;5084721;28;20029;-49
2022/06/21 02:13:14;;;;;;;8.35;7.18;;;24.10;99.90;;;;;;5084919;28;20035;-49
2022/06/21 02:15:52;;;;;;;9.88;7.05;;;24.10;99.90;;;;;;5067840;28;20133;-50
2022/06/21 02:18:20;;;;;;;9.05;7.38;;;24.10;99.90;;;;;;5086886;28;20082;-51
2022/06/21 02:21:12;;;;;;;11.02;7.25;;;24.10;99.90;;;;;;5083909;28;20043;-51
2022/06/21 02:23:40;;;;;;;10.88;6.82;;;24.10;99.90;;;;;;5075928;28;20028;-51
2022/06/21 02:26:06;;;;;;;9.55;7.22;;;24.00;99.90;;;;;;5084886;28;20020;-51
2022/06/21 02:28:32;;;;;;;9.77;8.20;;;24.10;99.90;;;;;;5082211;28;20035;-50
2022/06/21 02:30:59;;;;;;;10.80;6.82;;;24.00;99.90;;;;;;5085252;28;20417;-49
2022/06/21 02:33:29;;;;;;;9.23;7.32;;;24.00;99.90;;;;;;5057631;28;20035;-49
2022/06/21 02:36:02;;;;;;;9.32;6.78;;;24.00;99.90;;;;;;5052208;28;20616;-50
2022/06/21 02:38:33;;;;;;;7.32;6.63;;;;;;;;;;5082458;28;20066;-50
2022/06/21 02:41:04;;;;;;;8.57;6.85;;;;;;;;;;5084425;28;20043;-50
2022/06/21 02:43:37;;;;;;;10.35;6.93;;;;;;;;;;5084354;28;20047;-50
2022/06/21 02:46:08;;;;;;;13.57;7.13;;;24.00;99.90;;;;;;5083195;28;20028;-49
2022/06/21 02:48:50;;;;;;;9.35;6.80;;;24.00;99.90;;;;;;5076151;28;20490;-51
2022/06/21 02:51:21;;;;;;;12.98;7.55;;;;;;;;;;5074564;28;20070;-48
2022/06/21 02:53:51;;;;;;;;;;;24.00;99.90;;;;;;5085235;28;20024;-51
2022/06/21 02:56:26;;;;;;;10.75;6.90;;;;;;;;;;5087020;28;19986;-49
2022/06/21 02:58:54;;;;;;;10.80;7.82;;;;;;;;;;5063520;28;20522;-51
2022/06/21 03:01:20;;;;;;;11.45;7.63;;;;;;;;;;5033346;28;20032;-50
2022/06/21 03:03:47;;;;;;;13.13;7.85;;;;;;;;;;5093610;28;20024;-49
2022/06/21 03:06:16;;;;;;;14.25;7.55;;;22.70;99.90;;;;;;5072398;28;20052;-51
2022/06/21 03:09:17;;;;;;;15.35;7.93;;;;;;;;;;5071314;28;20051;-50
2022/06/21 03:11:47;;;;;;;11.68;7.13;;;23.70;99.90;;;;;;4994529;28;20038;-51
2022/06/21 03:14:15;;;;;;;9.88;7.28;;;;;;;;;;5009995;28;20104;-49
2022/06/21 03:16:43;;;;;;;11.35;7.05;;;23.60;99.90;;;;;;5010176;28;20170;-49
2022/06/21 03:19:26;;;;;;;9.32;7.45;;;23.50;99.90;;;;;;4975301;28;20042;-49
2022/06/21 03:21:53;;;;;;;9.50;8.07;;;23.50;99.90;;;;;;5005514;28;20490;-49
2022/06/21 03:24:22;;;;;;;11.52;7.13;;;23.50;99.90;;;;;;5009992;28;20026;-50
2022/06/21 03:27:05;;;;;;;14.02;7.18;;;23.50;99.90;;;;;;5010299;28;20528;-50
2022/06/21 03:29:31;;;;;;;10.05;7.00;;;23.50;99.90;;;;;;5010414;28;20117;-50
2022/06/21 03:31:59;;;;;;;13.20;7.78;;;23.60;99.90;;;;;;5011063;28;20038;-51
2022/06/21 03:34:26;;;;;;;12.38;7.35;;;23.60;99.90;;;;;;5010217;28;20050;-49
2022/06/21 03:36:52;;;;;;;13.32;8.07;;;23.50;99.90;;;;;;5010145;28;20045;-51
2022/06/21 03:41:42;;;;;;;13.65;7.40;;;23.40;99.90;;;;;;5010131;28;20120;-50
2022/06/21 03:42:09;;;;;;;11.65;7.38;;;23.30;99.90;;;;;;4991426;28;20577;-51
2022/06/21 03:44:43;;;;;;;10.68;7.95;;;23.40;99.90;;;;;;5005648;28;20108;-51
2022/06/21 03:47:39;;;;;;;10.90;7.13;;;23.40;99.90;;;;;;5046771;28;20399;-50
2022/06/21 03:50:21;;;;;;;10.07;7.25;;;23.40;99.90;;;;;;5045336;28;20095;-49
2022/06/21 03:53:02;;;;;;;14.32;7.63;;;23.40;99.90;;;;;;5046492;28;20500;-50
2022/06/21 03:55:50;;;;;;;12.93;7.95;;;23.40;99.90;;;;;;5033526;28;20025;-50
2022/06/21 03:58:23;;;;;;;11.73;7.47;;;;;;;;;;5047371;28;20045;-49
2022/06/21 04:00:53;;;;;;;15.70;7.75;;;23.40;99.90;;;;;;5053406;28;20029;-50
2022/06/21 04:03:37;;;;;;;12.23;8.18;;;23.60;99.90;;;;;;5016627;28;20507;-50
2022/06/21 04:06:13;;;;;;;10.00;7.45;;;23.50;99.90;;;;;;5053186;28;20045;-50
2022/06/21 04:08:46;;;;;;;10.35;7.15;;;23.40;99.90;;;;;;4999751;28;20029;-49
2022/06/21 04:11:30;;;;;;;15.20;7.70;;;23.50;99.90;;;;;;5052980;28;20488;-50
2022/06/21 04:14:20;;;;;;;7.35;6.43;;;23.50;99.90;;;;;;5044811;28;20400;-49
2022/06/21 04:16:59;;;;;;;12.38;7.38;;;23.40;99.90;;;;;;5050778;28;20060;-48
2022/06/21 04:19:40;;;;;;;11.82;7.65;;;23.40;99.90;;;;;;5045885;28;20399;-50
2022/06/21 04:22:42;;;;;;;13.85;7.93;;;23.50;99.90;;;;;;5085929;28;20068;-50
2022/06/21 04:25:37;;;;;;;12.40;7.95;;;23.60;99.90;;;;;;5076482;28;20043;-48
2022/06/21 04:28:10;;;;;;;13.68;8.43;;;23.70;99.90;;;;;;5095712;28;20036;-49
2022/06/21 04:30:46;;;;;;;12.77;7.93;;;23.70;99.90;;;;;;5095125;28;20063;-51
2022/06/21 04:33:24;;;;;;;12.40;7.10;;;23.90;99.90;;;;;;5095766;28;20028;-51
2022/06/21 04:36:01;;;;;;;13.57;7.03;;;23.90;99.90;;;;;;5059925;28;20043;-48
2022/06/21 04:38:39;;;;;;;10.77;5.07;;;24.00;99.90;;;;;;5094518;28;20028;-50
2022/06/21 04:41:35;;;;;;;12.82;7.55;;;23.90;99.90;;;;;;5095349;28;20039;-50
2022/06/21 04:44:08;;;;;;;12.10;7.45;;;24.00;99.90;;;;;;5095860;28;20028;-48
2022/06/21 04:47:05;;;;;;;13.40;6.40;;;24.10;99.90;;;;;;5095226;28;20127;-49
2022/06/21 04:49:42;;;;;;;12.20;7.38;;;24.10;99.90;;;;;;5029938;28;20132;-47
2022/06/21 04:52:16;;;;;;;10.20;6.68;;;24.20;99.90;;;;;;5094685;28;20066;-50
2022/06/21 04:54:43;;;;;;;11.68;7.03;;;24.30;99.90;;;;;;5095811;28;20077;-49
2022/06/21 04:57:11;;;;;;;8.27;6.85;;;24.40;99.90;;;;;;5094779;28;20032;-48
2022/06/21 04:59:47;;;;;;;12.10;7.03;;;24.50;99.90;;;;;;5095086;28;20398;-49
2022/06/21 05:02:25;;;;;;;7.47;5.90;;;24.50;99.90;;;;;;5091657;28;20447;-50
2022/06/21 05:05:00;;;;;;;12.38;7.97;;;24.50;99.90;;;;;;5088525;28;20098;-48
2022/06/21 05:07:31;;;;;;;11.95;7.05;;;24.80;99.90;;;;;;5070844;28;20045;-50
2022/06/21 05:09:57;;;;;;;;;;;24.90;99.90;;;;;;5074452;28;20119;-48
2022/06/21 05:12:34;;;;;;;9.77;6.28;;;25.00;99.90;;;;;;5074124;28;19947;-50
2022/06/21 05:15:23;;;;;;;8.07;6.28;;;25.10;99.90;;;;;;5039114;28;20059;-48
2022/06/21 05:17:54;;;;;;;8.98;6.72;;;25.20;99.90;;;;;;5054869;28;20076;-50
2022/06/21 05:20:22;;;;;;;10.20;6.57;;;;;;;;;;5074693;28;20027;-49
2022/06/21 05:22:50;;;;;;;12.57;7.88;;;;;;;;;;5070672;28;20086;-50
2022/06/21 05:25:25;;;;;;;11.13;6.97;;;;;;;;;;5073851;28;20037;-48
2022/06/21 05:28:00;;;;;;;10.98;7.40;;;;;;;;;;5071096;28;20444;-48
2022/06/21 05:30:32;;;;;;;11.05;6.72;;;;;;;;;;5066275;28;20472;-50
2022/06/21 05:33:03;;;;;;;10.55;6.55;;;25.80;99.90;;;;;;5065347;28;20040;-50
2022/06/21 05:35:33;;;;;;;8.25;5.90;;;25.80;99.90;;;;;;5074272;28;20107;-48
2022/06/21 05:38:05;;;;;;;10.27;6.03;;;25.90;99.90;;;;;;5073602;28;20037;-48
2022/06/21 05:40:42;;;;;;;12.27;6.28;;;;;;;;;;5073764;28;20070;-48
2022/06/21 05:43:13;;;;;;;10.20;5.88;;;;;;;;;;5064268;28;20502;-48
2022/06/21 05:45:41;;;;;;;9.77;6.13;;;26.30;99.90;;;;;;5047046;28;20036;-50
2022/06/21 05:48:17;;;;;;;6.40;5.25;;;26.20;99.90;;;;;;5073623;28;20096;-49
2022/06/21 05:50:43;;;;;;;8.63;5.78;;;26.20;99.90;;;;;;5060944;28;20029;-50
2022/06/21 05:53:15;;;;;;;9.48;5.22;;;;;;;;;;5027343;28;20044;-48
2022/06/21 05:55:43;;;;;;;8.02;4.97;;;;;;;;;;5061562;28;20439;-48
2022/06/21 05:58:17;;;;;;;7.68;4.30;;;;;;;;;;5046396;28;20112;-48
2022/06/21 06:00:43;;;;;;;11.57;6.28;;;;;;;;;;5064464;28;20028;-50
2022/06/21 06:03:12;;;;;;;10.13;5.32;;;;;;;;;;5061163;28;20039;-48
2022/06/21 06:05:38;;;;;;;11.68;5.85;;;;;;;;;;5041654;28;20455;-50
2022/06/21 06:08:25;;;;;;;9.48;5.75;;;;;;;;;;5063416;28;20028;-49
2022/06/21 06:10:51;;;;;;;12.20;5.93;;;;;;;;;;5056530;28;20033;-50
2022/06/21 06:13:29;;;;;;;8.70;6.38;;;;;;;;;;5034419;28;20037;-48
2022/06/21 06:16:00;;;;;;;8.93;5.88;;;;;;;;;;5058781;28;20037;-50
2022/06/21 06:18:30;;;;;;;9.45;5.65;;;;;;;;;;5065836;28;20028;-50
2022/06/21 06:21:05;;;;;;;8.43;5.70;;;;;;;;;;5069827;28;20025;-49
2022/06/21 06:23:57;;;;;;;11.77;5.80;;;;;;;;;;5072078;28;20396;-50
2022/06/21 06:26:31;;;;;;;9.45;5.63;;;;;;;;;;5061944;28;20040;-50
2022/06/21 06:28:57;;;;;;;8.25;5.22;;;;;;;;;;5072525;28;20036;-51
2022/06/21 06:31:38;;;;;;;9.88;5.95;;;;;;;;;;5073306;28;20032;-47
2022/06/21 06:34:06;;;;;;;11.48;5.70;;;;;;;;;;5070841;28;20047;-52
2022/06/21 06:36:34;;;;;;;10.70;5.20;;;;;;;;;;5072549;28;20051;-50
2022/06/21 06:39:01;;;;;;;6.57;4.78;;;;;;;;;;5054333;28;20032;-52
2022/06/21 06:41:37;;;;;;;9.40;5.35;;;;;;;;;;5054673;28;20146;-47
2022/06/21 06:44:07;;;;;;;12.35;5.45;;;;;;;;;;5037982;28;20037;-48
2022/06/21 06:46:36;;;;;;;7.63;4.90;;;;;;;;;;5059341;28;21303;-51
2022/06/21 06:49:07;;;;;;;12.20;5.65;;;;;;;;;;5065766;28;20057;-49
2022/06/21 06:51:45;;;;;;;10.70;5.05;;;;;;;;;;5071528;28;20028;-44
2022/06/21 06:54:25;;;;;;;13.93;5.65;;;;;;;;;;5064769;28;20025;-50
2022/06/21 06:57:03;;;;;;;9.52;5.45;;;;;;;;;;5069220;28;20623;-48
2022/06/21 06:59:29;;;;;;;6.57;4.18;;;27.90;99.90;;;;;;5029477;28;20041;-46
2022/06/21 07:02:02;;;;;;;9.65;5.75;;;27.60;99.90;;;;;;5072246;28;20379;-45
2022/06/21 07:04:34;;;;;;;11.05;4.55;;;27.60;99.90;;;;;;5020058;28;20041;-47
2022/06/21 07:07:03;;;;;;;9.57;4.18;;;;;;;;;;5089969;28;20483;-48
2022/06/21 07:09:44;;;;;;;6.25;2.97;;;;;;;;;;5092936;28;20479;-44
2022/06/21 07:12:23;;;;;;;6.03;4.03;;;27.60;99.90;;;;;;5085915;28;20403;-45
2022/06/21 07:14:50;;;;;;;8.93;4.50;;;27.60;99.90;;;;;;5037982;28;20032;-47
2022/06/21 07:17:22;;;;;;;12.43;5.32;;;27.60;99.90;;;;;;5088136;28;20033;-45
2022/06/21 07:19:48;;;;;;;8.40;5.25;;;;;;;;;;5079705;28;20033;-45
2022/06/21 07:22:19;;;;;;;8.65;5.45;;;;;;;;;;5090669;28;20051;-47
2022/06/21 07:24:55;;;;;;;11.65;5.53;;;28.10;99.90;;;;;;5091102;28;20036;-48
2022/06/21 07:27:23;;;;;;;6.57;3.88;;;28.10;99.90;;;;;;5079508;28;20033;-47
2022/06/21 07:30:01;;;;;;;7.55;4.38;;;27.90;99.90;;;;;;5048943;28;20051;-45
2022/06/21 07:32:54;;;;;;;9.55;4.10;;;27.90;99.90;;;;;;5084746;28;20035;-52
2022/06/21 07:35:41;;;;;;;8.00;5.00;;;;;;;;;;5082900;28;20043;-49
2022/06/21 07:38:13;;;;;;;8.02;5.25;;;;;;;;;;5038097;28;20157;-57
2022/06/21 07:40:42;;;;;;;8.60;5.40;;;;;;;;;;5091959;28;20032;-53
2022/06/21 07:43:08;;;;;;;7.10;4.20;;;;;;;;;;5092993;28;20032;-48
2022/06/21 07:45:37;;;;;;;17.92;6.13;;;28.80;99.90;;;;;;5084763;28;20028;-49
2022/06/21 07:48:07;;;;;;;7.65;4.32;;;28.90;99.90;;;;;;5088357;28;20081;-50
2022/06/21 07:50:39;;;;;;;9.43;4.18;;;28.90;99.90;;;;;;5092781;28;20461;-49
2022/06/21 07:53:29;;;;;;;7.15;4.38;;;28.90;99.90;;;;;;5096135;28;20038;-49
2022/06/21 07:56:04;;;;;;;7.38;4.20;;;28.70;99.90;;;;;;5055838;28;20040;-52
2022/06/21 07:58:48;;;;;;;6.75;4.53;;;28.70;99.90;;;;;;5056552;28;20064;-50
2022/06/21 08:07:13;;;;;;;6.68;4.35;;;28.90;99.90;;;;;;5083885;28;20096;-51
2022/06/21 08:10:00;;;;;;;7.68;5.25;;;29.40;99.90;;;;;;5086718;28;20028;-52
2022/06/21 08:12:26;;;;;;;6.80;4.55;;;;;;;;;;5090390;28;20036;-50
2022/06/21 08:14:52;;;;;;;5.88;4.00;;;29.60;99.90;;;;;;5081274;28;20025;-48
2022/06/21 08:17:39;;;;;;;5.32;3.78;;;;;;;;;;5055117;28;20051;-49
2022/06/21 08:20:28;;;;;;;6.82;5.20;;;;;;;;;;5077676;28;20036;-51
2022/06/21 08:22:58;;;;;;;8.25;4.18;;;;;;;;;;4993638;28;20049;-51
2022/06/21 08:25:41;;;;;;;9.15;4.50;;;30.00;99.90;;;;;;4993620;28;20038;-50
2022/06/21 08:28:26;;;;;;;9.35;4.63;;;;;;;;;;4993428;28;20466;-52
2022/06/21 08:30:56;;;;;;;9.82;4.55;;;;;;;;;;4991019;28;20034;-49
2022/06/21 08:33:55;;;;;;;17.77;4.93;;;;;;;;;;4983577;28;20065;-51
2022/06/21 08:36:35;;;;;;;7.03;4.47;;;30.60;99.90;;;;;;4953326;28;20067;-52
2022/06/21 08:39:01;;;;;;;7.30;4.30;;;;;;;;;;4953572;28;20078;-52
2022/06/21 08:41:57;;;;;;;7.43;4.47;;;;;;;;;;4951398;29;20036;-51
2022/06/21 08:44:29;;;;;;;6.40;4.68;;;;;;;;;;4953803;28;20031;-51
2022/06/21 08:47:13;;;;;;;10.73;6.63;;;;;;;;;;4954634;29;20047;-50
2022/06/21 08:50:32;;;;;;;7.78;4.50;;;31.00;99.90;;;;;;4954592;29;20407;-52
2022/06/21 08:53:17;;;;;;;6.95;4.22;;;30.90;99.90;;;;;;4897227;29;20036;-49
2022/06/21 08:56:04;;;;;;;6.10;3.40;;;31.10;99.90;;;;;;4895907;29;20465;-53
2022/06/21 08:58:41;;;;;;;5.80;3.70;;;31.10;99.90;;;;;;4896722;29;20049;-52
2022/06/21 09:01:39;;;;;;;5.93;3.42;;;30.90;99.90;;;;;;4930109;29;20047;-50
2022/06/21 09:04:19;;;;;;;6.93;4.75;;;30.90;99.90;;;;;;4928125;29;20082;-51
2022/06/21 09:06:57;;;;;;;5.90;3.55;;;31.00;99.90;;;;;;4923203;29;20056;-54
2022/06/21 09:09:32;;;;;;;7.45;5.03;;;30.70;99.90;;;;;;4934909;29;20157;-52
2022/06/21 09:12:10;;;;;;;5.85;4.18;;;31.10;99.90;;;;;;4964148;28;20039;-53
2022/06/21 09:14:57;;;;;;;9.45;4.47;;;31.10;99.90;;;;;;5011238;28;20045;-53
2022/06/21 09:17:26;;;;;;;7.40;4.30;;;;;;;;;;5001240;28;20038;-51
2022/06/21 09:20:09;;;;;;;7.32;4.10;;;;;;;;;;5012320;28;20041;-52
2022/06/21 09:22:38;;;;;;;8.60;4.82;;;;;;;;;;5012199;28;20137;-50
2022/06/21 09:25:04;;;;;;;6.07;4.03;;;;;;;;;;5012697;28;20081;-51
2022/06/21 09:27:40;;;;;;;19.73;4.88;;;;;;;;;;5061840;28;20044;-50
2022/06/21 09:30:09;;;;;;;5.75;4.63;;;;;;;;;;5091132;28;20472;-53
2022/06/21 09:32:48;;;;;;;9.75;4.32;;;;;;;;;;5086702;28;20382;-53
2022/06/21 09:35:22;;;;;;;8.48;4.30;;;31.40;99.90;;;;;;5080876;28;20033;-53
2022/06/21 09:37:56;;;;;;;8.35;3.80;;;;;;;;;;5081584;28;20112;-52
2022/06/21 09:40:36;;;;;;;7.60;3.85;;;32.10;99.90;;;;;;5094740;28;20036;-50
2022/06/21 09:43:15;;;;;;;8.07;4.50;;;31.90;99.90;;;;;;5088880;28;20024;-53
2022/06/21 09:46:13;;;;;;;9.25;3.85;;;32.00;99.90;;;;;;5047915;28;20152;-51
2022/06/21 09:48:41;;;;;;;7.35;3.97;;;32.10;99.90;;;;;;4992122;28;20174;-52
2022/06/21 09:51:50;;;;;;;6.43;4.38;;;31.90;99.90;;;;;;4992143;28;20154;-51
2022/06/21 09:54:35;;;;;;;5.15;3.53;;;31.90;99.90;;;;;;4918180;29;20079;-53
2022/06/21 09:57:06;;;;;;;9.38;4.05;;;32.20;99.90;;;;;;4917419;29;20055;-52
2022/06/21 09:59:32;;;;;;;;;;;32.40;99.90;;;;;;4908611;29;20044;-50
2022/06/21 10:02:23;;;;;;;10.27;4.13;;;32.60;99.90;;;;;;4911813;29;19922;-50
2022/06/21 10:05:08;;;;;;;8.02;3.72;;;;;;;;;;4863518;29;20048;-52
2022/06/21 10:07:55;;;;;;;6.20;4.18;;;;;;;;;;4925419;29;20123;-50
2022/06/21 10:10:21;;;;;;;8.68;4.07;;;;;;;;;;4926077;29;20047;-53
2022/06/21 10:13:02;;;;;;;12.88;5.18;;;;;;;;;;4922491;29;20134;-49
2022/06/21 10:15:34;;;;;;;5.50;4.10;;;;;;;;;;4913207;29;20063;-52
2022/06/21 10:18:20;;;;;;;8.25;4.20;;;;;;;;;;4952138;28;20043;-55
2022/06/21 10:21:05;;;;;;;8.13;4.25;;;;;;;;;;4953027;29;20063;-50
2022/06/21 10:23:39;;;;;;;8.13;4.65;;;;;;;;;;4950760;29;20046;-51
2022/06/21 10:26:05;;;;;;;8.75;4.28;;;;;;;;;;4945436;28;20048;-53
2022/06/21 10:28:49;;;;;;;11.32;4.43;;;;;;;;;;4991250;28;20046;-51
2022/06/21 10:31:16;;;;;;;8.23;4.65;;;;;;;;;;5028742;28;20113;-54
2022/06/21 10:33:59;;;;;;;5.85;3.97;;;;;;;;;;5046128;28;20032;-50
2022/06/21 10:36:35;;;;;;;6.93;4.55;;;;;;;;;;5085271;28;20036;-53
2022/06/21 10:39:01;;;;;;;6.53;4.20;;;;;;;;;;5087076;28;20024;-52
2022/06/21 10:41:38;;;;;;;8.68;3.78;;;33.40;99.90;;;;;;5085132;28;20032;-53
2022/06/21 10:44:23;;;;;;;7.00;4.00;;;;;;;;;;5036256;28;20177;-50
2022/06/21 10:46:53;;;;;;;5.60;4.30;;;;;;;;;;5086365;28;20170;-51
2022/06/21 10:49:22;;;;;;;7.03;4.53;;;;;;;;;;5080341;28;20047;-53
2022/06/21 10:52:02;;;;;;;7.43;4.18;;;34.20;99.90;;;;;;5081402;28;20463;-52
2022/06/21 10:54:55;;;;;;;8.73;5.03;;;34.20;98.00;;;;;;5082453;28;20028;-52
2022/06/21 10:57:53;;;;;;;8.70;4.47;;;34.20;97.00;;;;;;5086993;28;20135;-54
2022/06/21 11:03:44;;;;;;;10.50;4.15;;;33.80;97.30;;;;;;5081358;28;20043;-52
2022/06/21 11:06:37;;;;;;;9.15;4.20;;;34.20;98.10;;;;;;5089672;28;20052;-50
2022/06/21 11:09:14;;;;;;;6.68;4.82;;;34.30;97.10;;;;;;5074761;28;20063;-49
2022/06/21 11:14:58;;;;;;;11.80;4.30;;;;;;;;;;5088510;28;20043;-50
2022/06/21 11:17:24;;;;;;;5.75;4.18;;;;;;;;;;5075355;28;20044;-48
2022/06/21 11:19:59;;;;;;;6.97;4.45;;;;;;;;;;5090079;28;20027;-54
2022/06/21 11:22:25;;;;;;;8.52;4.55;;;;;;;;;;5064733;28;20043;-49
2022/06/21 11:24:51;;;;;;;6.07;3.75;;;;;;;;;;5093417;28;20106;-49
2022/06/21 11:27:36;;;;;;;8.02;3.97;;;;;;;;;;5089951;28;20032;-47
2022/06/21 11:30:03;;;;;;;6.88;3.92;;;;;;;;;;5092503;28;20573;-49
2022/06/21 11:32:35;;;;;;;9.45;4.50;;;;;;;;;;5092155;28;20085;-49
2022/06/21 11:35:30;;;;;;;6.72;4.05;;;;;;;;;;5092113;28;20158;-51
2022/06/21 11:38:11;;;;;;;6.95;4.05;;;;;;;;;;5001517;28;20406;-50
2022/06/21 11:40:37;;;;;;;10.13;4.90;;;;;;;;;;5002096;28;20070;-50
2022/06/21 11:43:09;;;;;;;11.05;4.07;;;;;;;;;;5003421;28;20375;-55
2022/06/21 11:45:49;;;;;;;10.57;4.40;;;;;;;;;;4994833;28;20226;-48
2022/06/21 11:48:21;;;;;;;5.60;3.70;;;;;;;;;;4999950;28;20123;-46
2022/06/21 11:50:53;;;;;;;9.90;4.10;;;;;;;;;;4998477;28;20095;-49
2022/06/21 11:53:37;;;;;;;7.80;4.22;;;;;;;;;;5005871;28;20047;-49
2022/06/21 11:56:07;;;;;;;11.40;4.40;;;;;;;;;;4993376;28;20042;-53
2022/06/21 11:58:43;;;;;;;5.78;4.07;;;;;;;;;;5002547;28;20068;-49
2022/06/21 12:01:34;;;;;;;8.80;4.03;;;;;;;;;;5004338;28;20065;-46
2022/06/21 12:04:01;;;;;;;7.82;4.18;;;;;;;;;;4977695;28;20042;-50
2022/06/21 12:06:32;;;;;;;7.57;4.47;;;;;;;;;;5000352;28;20045;-50
2022/06/21 12:09:19;;;;;;;8.73;4.45;;;36.20;99.90;;;;;;4998942;28;20132;-51
2022/06/21 12:11:48;;;;;;;7.72;4.35;;;36.60;99.90;;;;;;4993751;28;20085;-49
2022/06/21 12:14:23;;;;;;;6.70;4.32;;;36.30;99.90;;;;;;5044763;28;20143;-53
2022/06/21 12:17:03;;;;;;;11.23;4.40;;;36.30;99.90;;;;;;5084979;28;20036;-49
2022/06/21 12:19:34;;;;;;;7.50;3.97;;;36.00;99.90;;;;;;5089230;28;20056;-49
2022/06/21 12:22:22;;;;;;;8.85;3.95;;;36.00;99.90;;;;;;5094622;28;20281;-50
2022/06/21 12:24:49;;;;;;;6.93;4.32;;;35.90;99.90;;;;;;5093374;28;20114;-48
2022/06/21 12:27:16;;;;;;;8.18;4.15;;;36.10;99.90;;;;;;5095371;28;20108;-48
2022/06/21 12:29:42;;;;;;;6.93;4.53;;;36.20;99.90;;;;;;5095293;28;20042;-49
2022/06/21 12:32:23;;;;;;;13.88;5.00;;;36.30;99.90;;;;;;5020788;28;20125;-50
2022/06/21 12:35:19;;;;;;;5.72;3.85;;;36.70;99.90;;;;;;5016577;28;20061;-48
2022/06/21 12:37:45;;;;;;;7.10;4.47;;;36.30;99.90;;;;;;4926219;28;20514;-50
2022/06/21 12:40:10;;;;;;;11.40;4.22;;;36.20;99.90;;;;;;4974648;28;20062;-49
2022/06/21 12:42:49;;;;;;;7.95;4.97;;;35.90;99.90;;;;;;4973834;28;20051;-48
2022/06/21 12:45:45;;;;;;;9.02;4.35;;;35.80;99.90;;;;;;4973945;28;20121;-49
2022/06/21 12:48:16;;;;;;;7.72;4.05;;;36.10;99.90;;;;;;4957899;28;20463;-50
2022/06/21 12:50:54;;;;;;;14.77;4.53;;;36.00;99.90;;;;;;4973337;28;20035;-50
2022/06/21 12:53:39;;;;;;;9.40;4.63;;;35.90;99.90;;;;;;4971983;28;20042;-50
2022/06/21 12:56:26;;;;;;;6.30;3.80;;;35.70;99.90;;;;;;4973674;28;20129;-49
2022/06/21 12:59:06;;;;;;;8.52;4.78;;;35.70;99.90;;;;;;4973661;28;20043;-49
2022/06/21 13:02:11;;;;;;;7.72;4.00;;;36.00;99.90;;;;;;4964990;28;20071;-48
2022/06/21 13:04:37;;;;;;;8.23;4.57;;;35.60;99.90;;;;;;4935465;29;20040;-50
2022/06/21 13:07:02;;;;;;;10.02;4.53;;;36.10;99.90;;;;;;4934089;29;20058;-49
2022/06/21 13:09:43;;;;;;;6.90;4.72;;;35.80;99.90;;;;;;4932910;29;20058;-50
2022/06/21 13:12:29;;;;;;;6.72;4.13;;;36.00;99.90;;;;;;4937187;29;20086;-51
2022/06/21 13:15:33;;;;;;;9.88;4.07;;;36.10;99.90;;;;;;4959428;28;20029;-50
2022/06/21 13:18:27;;;;;;;7.63;4.18;;;36.30;99.90;;;;;;4987023;28;20086;-50
2022/06/21 13:21:13;;;;;;;9.73;4.30;;;36.70;99.90;;;;;;4973406;28;20074;-51
2022/06/21 13:24:10;;;;;;;7.07;4.28;;;36.60;99.90;;;;;;4980033;28;20035;-51
2022/06/21 13:27:05;;;;;;;10.95;4.70;;;36.80;99.90;;;;;;4970139;28;20042;-52
2022/06/21 13:30:01;;;;;;;10.82;4.85;;;36.50;99.90;;;;;;4952259;28;20057;-50
2022/06/21 13:32:40;;;;;;;11.05;4.60;;;36.50;99.90;;;;;;4984232;28;20041;-51
2022/06/21 13:35:20;;;;;;;9.27;4.13;;;35.90;99.90;;;;;;4980593;28;20045;-49
2022/06/21 13:38:00;;;;;;;7.28;4.38;;;35.40;99.90;;;;;;4970603;28;20068;-51
2022/06/21 13:40:59;;;;;;;8.48;4.38;;;;;;;;;;4988791;28;20030;-49
2022/06/21 13:43:41;;;;;;;10.23;5.15;;;;;;;;;;4976953;28;20042;-50
2022/06/21 13:46:21;;;;;;;9.35;4.80;;;;;;;;;;4978467;28;20557;-50
2022/06/21 13:48:50;;;;;;;7.25;4.45;;;;;;;;;;4946178;28;20050;-49
2022/06/21 13:51:18;;;;;;;7.32;4.55;;;;;;;;;;4980802;28;20117;-50
2022/06/21 13:53:56;;;;;;;7.65;5.00;;;;;;;;;;4979361;28;20449;-51
2022/06/21 13:56:40;;;;;;;8.48;5.10;;;;;;;;;;4976855;28;20129;-48
2022/06/21 13:59:08;;;;;;;10.40;4.70;;;;;;;;;;4976993;28;20039;-51
2022/06/21 14:01:38;;;;;;;7.22;4.40;;;;;;;;;;4976974;28;20367;-48
2022/06/21 14:04:23;;;;;;;8.20;4.20;;;;;;;;;;4979075;28;20114;-51
2022/06/21 14:06:54;;;;;;;8.23;3.83;;;;;;;;;;4978460;28;20046;-50
2022/06/21 14:09:31;;;;;;;8.18;4.55;;;;;;;;;;4973063;28;20054;-51
2022/06/21 14:12:01;;;;;;;9.95;4.25;;;;;;;;;;4944374;28;20034;-49
2022/06/21 14:14:38;;;;;;;9.63;4.18;;;;;;;;;;4988925;28;20100;-49
2022/06/21 14:17:18;;;;;;;9.82;4.18;;;;;;;;;;4978034;28;20081;-49
2022/06/21 14:19:51;;;;;;;8.73;5.13;;;;;;;;;;5070692;28;20127;-51
2022/06/21 14:22:20;;;;;;;8.63;4.32;;;;;;;;;;5071433;28;20040;-50
2022/06/21 14:24:52;;;;;;;11.40;4.38;;;;;;;;;;5086480;28;20032;-49